Cottonwood, AZ

12:29 PM MST on October 25, 2014 (GMT -0700)
Sedona | Change Station
CLOSE
Current Station
Airport
Location: Sedona,
Elevation: 4826 ft
Nearby Weather Stations

Elev 4826 ft 34.85 °N, 111.79 °W | Updated 14 minutes ago

Clear
Clear
81 °F
Feels Like 81 °F
N
13
Wind Variable Wind from SSE

Today
High -- | Low -- °F
--% Chance of Precip.
Yesterday
High -- | Low -- °F
Precip. -- in
6:42 AM 5:41 PM
Waxing Crescent, 4% visible
Pressure 30.23 in
Visibility 10.0 miles
Clouds Clear
Dew Point 45 °F
Humidity 28%
Rainfall 0.00 in
Snow Depth Not available.
UV 6 out of 12
Pollen 5.20 out of 12
Air Quality Not available.
Flu Activity No Activity
METAR KSEZ 251915Z AUTO 16011KT 10SM CLR 27/07 A3023 RMK AO2

More Conditions Fewer Conditions

Pressure 30.23 in
Visibility 10.0 miles
Clouds Clear
Dew Point 45 °F
Humidity 28%
Rainfall 0.00 in
Snow Depth Not available.
UV 6 out of 12
Pollen 5.20 out of 12
Air Quality Not available.
Flu Activity No Activity
METAR KSEZ 251915Z AUTO 16011KT 10SM CLR 27/07 A3023 RMK AO2

More Conditions Fewer Conditions

10-Day Weather Forecast

Almanac

Astronomy

Oct. 25, 2014 Rise Set
Actual Time 6:42 AM MST 5:41 PM MST
Civil Twilight 6:16 AM MST 6:07 PM MST
Nautical Twilight 5:46 AM MST 6:36 PM MST
Astronomical Twilight 5:17 AM MST 7:05 PM MST
Moon 8:21 AM MST 7:10 PM MST
Length of Visible Light 11h 50m
Length of Day
10h 59m
Tomorrow will be 1m 59s shorter.
Waxing Crescent, 4% of the Moon is Illuminated
Today
Waxing Crescent
Oct 30
First Quarter
Nov 6
Full
Nov 14
Last Quarter
Nov 22
New

Today's Extremes

State Highs State Lows

Community

WunderPhotos

Upload Photos

1,764,969 photos uploaded!

Nearby

Snow Depth

Station Depth Elevation
Baker Butte 0 in 7300 ft
Workman Creek 1 in 6900 ft
Baldy 0 in 9125 ft
Wildcat 0 in 7850 ft

Earthquake Activity

City Distance Mag. Time & Date
No recent earthquake activity has been reported nearby.
Minimum magnitude displayed is 2.5.

Coastal Water Temperatures

Place Temperature
No Stations Reporting

Nearby Weather Stations